sensor_id;sensor_type;location;lat;lon;timestamp;temperature;humidity
33865;DHT22;20159;51.072;13.526;2023-02-01T00:00:33;6.80;90.40
33865;DHT22;20159;51.072;13.526;2023-02-01T00:03:00;6.90;90.50
33865;DHT22;20159;51.072;13.526;2023-02-01T00:05:25;6.80;90.40
33865;DHT22;20159;51.072;13.526;2023-02-01T00:07:51;6.80;90.40
33865;DHT22;20159;51.072;13.526;2023-02-01T00:10:17;6.90;90.40
33865;DHT22;20159;51.072;13.526;2023-02-01T00:12:43;6.80;90.40
33865;DHT22;20159;51.072;13.526;2023-02-01T00:15:08;6.80;90.40
33865;DHT22;20159;51.072;13.526;2023-02-01T00:17:34;6.80;90.40
33865;DHT22;20159;51.072;13.526;2023-02-01T00:20:00;6.80;90.40
33865;DHT22;20159;51.072;13.526;2023-02-01T00:22:25;6.80;90.30
33865;DHT22;20159;51.072;13.526;2023-02-01T00:24:50;6.80;90.30
33865;DHT22;20159;51.072;13.526;2023-02-01T00:27:16;6.80;90.30
33865;DHT22;20159;51.072;13.526;2023-02-01T00:29:45;6.80;90.30
33865;DHT22;20159;51.072;13.526;2023-02-01T00:32:11;6.80;90.40
33865;DHT22;20159;51.072;13.526;2023-02-01T00:34:37;6.80;90.40
33865;DHT22;20159;51.072;13.526;2023-02-01T00:37:02;6.80;90.30
33865;DHT22;20159;51.072;13.526;2023-02-01T00:39:28;6.80;90.30
33865;DHT22;20159;51.072;13.526;2023-02-01T00:41:53;6.80;90.30
33865;DHT22;20159;51.072;13.526;2023-02-01T00:44:19;6.80;90.30
33865;DHT22;20159;51.072;13.526;2023-02-01T00:46:44;6.80;90.20
33865;DHT22;20159;51.072;13.526;2023-02-01T00:49:10;6.80;90.20
33865;DHT22;20159;51.072;13.526;2023-02-01T00:51:35;6.80;90.10
33865;DHT22;20159;51.072;13.526;2023-02-01T00:54:01;6.70;90.00
33865;DHT22;20159;51.072;13.526;2023-02-01T00:56:26;6.80;90.00
33865;DHT22;20159;51.072;13.526;2023-02-01T00:58:55;6.70;90.00
33865;DHT22;20159;51.072;13.526;2023-02-01T01:01:27;6.70;89.90
33865;DHT22;20159;51.072;13.526;2023-02-01T01:03:55;6.70;89.90
33865;DHT22;20159;51.072;13.526;2023-02-01T01:06:23;6.70;90.00
33865;DHT22;20159;51.072;13.526;2023-02-01T01:08:51;6.70;90.00
33865;DHT22;20159;51.072;13.526;2023-02-01T01:11:25;6.70;89.90
33865;DHT22;20159;51.072;13.526;2023-02-01T01:13:52;6.70;89.70
33865;DHT22;20159;51.072;13.526;2023-02-01T01:16:19;6.70;89.40
33865;DHT22;20159;51.072;13.526;2023-02-01T01:18:45;6.70;89.30
33865;DHT22;20159;51.072;13.526;2023-02-01T01:21:12;6.70;89.30
33865;DHT22;20159;51.072;13.526;2023-02-01T01:23:38;6.60;89.10
33865;DHT22;20159;51.072;13.526;2023-02-01T01:26:16;6.60;89.20
33865;DHT22;20159;51.072;13.526;2023-02-01T01:28:42;6.60;89.00
33865;DHT22;20159;51.072;13.526;2023-02-01T01:31:09;6.60;88.90
33865;DHT22;20159;51.072;13.526;2023-02-01T01:33:35;6.60;88.80
33865;DHT22;20159;51.072;13.526;2023-02-01T01:36:01;6.60;88.70
33865;DHT22;20159;51.072;13.526;2023-02-01T01:38:26;6.60;88.40
33865;DHT22;20159;51.072;13.526;2023-02-01T01:40:52;6.50;88.40
33865;DHT22;20159;51.072;13.526;2023-02-01T01:43:19;6.50;88.40
33865;DHT22;20159;51.072;13.526;2023-02-01T01:45:48;6.50;88.30
33865;DHT22;20159;51.072;13.526;2023-02-01T01:50:48;6.50;88.40
33865;DHT22;20159;51.072;13.526;2023-02-01T01:53:20;6.40;88.40
33865;DHT22;20159;51.072;13.526;2023-02-01T01:55:49;6.40;88.50
33865;DHT22;20159;51.072;13.526;2023-02-01T01:58:19;6.40;88.50
33865;DHT22;20159;51.072;13.526;2023-02-01T02:00:46;6.40;88.50
33865;DHT22;20159;51.072;13.526;2023-02-01T02:03:19;6.30;88.30
33865;DHT22;20159;51.072;13.526;2023-02-01T02:05:47;6.30;88.20
33865;DHT22;20159;51.072;13.526;2023-02-01T02:08:14;6.30;88.20
33865;DHT22;20159;51.072;13.526;2023-02-01T02:10:39;6.30;88.20
33865;DHT22;20159;51.072;13.526;2023-02-01T02:13:24;6.30;88.20
33865;DHT22;20159;51.072;13.526;2023-02-01T02:16:02;6.30;88.20
33865;DHT22;20159;51.072;13.526;2023-02-01T02:19:01;6.20;88.30
33865;DHT22;20159;51.072;13.526;2023-02-01T02:22:05;6.20;88.10
33865;DHT22;20159;51.072;13.526;2023-02-01T02:25:15;6.20;88.40
33865;DHT22;20159;51.072;13.526;2023-02-01T02:31:04;6.20;88.10
33865;DHT22;20159;51.072;13.526;2023-02-01T02:33:47;6.20;88.20
33865;DHT22;20159;51.072;13.526;2023-02-01T02:36:19;6.20;88.10
33865;DHT22;20159;51.072;13.526;2023-02-01T02:41:27;6.20;88.10
33865;DHT22;20159;51.072;13.526;2023-02-01T02:44:32;6.20;88.00
33865;DHT22;20159;51.072;13.526;2023-02-01T02:47:34;6.20;87.50
33865;DHT22;20159;51.072;13.526;2023-02-01T02:50:17;6.20;88.20
33865;DHT22;20159;51.072;13.526;2023-02-01T02:54:12;6.20;87.70
33865;DHT22;20159;51.072;13.526;2023-02-01T02:56:25;6.20;87.70
33865;DHT22;20159;51.072;13.526;2023-02-01T02:59:13;6.30;87.90
33865;DHT22;20159;51.072;13.526;2023-02-01T03:01:58;6.20;87.70
33865;DHT22;20159;51.072;13.526;2023-02-01T03:04:42;6.20;87.90
33865;DHT22;20159;51.072;13.526;2023-02-01T03:07:45;6.30;88.10
33865;DHT22;20159;51.072;13.526;2023-02-01T03:10:05;6.30;87.90
33865;DHT22;20159;51.072;13.526;2023-02-01T03:12:36;6.30;87.80
33865;DHT22;20159;51.072;13.526;2023-02-01T03:15:59;6.30;87.70
33865;DHT22;20159;51.072;13.526;2023-02-01T03:18:47;6.30;87.30
33865;DHT22;20159;51.072;13.526;2023-02-01T03:21:40;6.30;87.50
33865;DHT22;20159;51.072;13.526;2023-02-01T03:24:18;6.40;87.50
33865;DHT22;20159;51.072;13.526;2023-02-01T03:26:51;6.40;87.20
33865;DHT22;20159;51.072;13.526;2023-02-01T03:29:23;6.40;87.50
33865;DHT22;20159;51.072;13.526;2023-02-01T03:31:49;6.50;87.60
33865;DHT22;20159;51.072;13.526;2023-02-01T03:34:15;6.50;87.10
33865;DHT22;20159;51.072;13.526;2023-02-01T03:36:56;6.50;87.20
33865;DHT22;20159;51.072;13.526;2023-02-01T03:39:41;6.50;87.00
33865;DHT22;20159;51.072;13.526;2023-02-01T03:42:17;6.50;86.80
33865;DHT22;20159;51.072;13.526;2023-02-01T03:44:51;6.50;86.70
33865;DHT22;20159;51.072;13.526;2023-02-01T03:47:28;6.50;86.70
33865;DHT22;20159;51.072;13.526;2023-02-01T03:50:18;6.50;86.40
33865;DHT22;20159;51.072;13.526;2023-02-01T03:52:57;6.60;86.10
33865;DHT22;20159;51.072;13.526;2023-02-01T03:55:25;6.60;86.40
33865;DHT22;20159;51.072;13.526;2023-02-01T03:58:01;6.60;86.40
33865;DHT22;20159;51.072;13.526;2023-02-01T04:00:28;6.60;86.00
33865;DHT22;20159;51.072;13.526;2023-02-01T04:02:54;6.60;86.40
33865;DHT22;20159;51.072;13.526;2023-02-01T04:05:20;6.70;86.40
33865;DHT22;20159;51.072;13.526;2023-02-01T04:07:46;6.70;86.30
33865;DHT22;20159;51.072;13.526;2023-02-01T04:10:12;6.70;86.40
33865;DHT22;20159;51.072;13.526;2023-02-01T04:12:38;6.70;86.10
33865;DHT22;20159;51.072;13.526;2023-02-01T04:15:04;6.70;86.00
33865;DHT22;20159;51.072;13.526;2023-02-01T04:17:30;6.70;86.00
33865;DHT22;20159;51.072;13.526;2023-02-01T04:19:55;6.70;85.70
33865;DHT22;20159;51.072;13.526;2023-02-01T04:22:21;6.70;85.90
33865;DHT22;20159;51.072;13.526;2023-02-01T04:24:46;6.70;85.50
33865;DHT22;20159;51.072;13.526;2023-02-01T04:27:12;6.70;85.40
33865;DHT22;20159;51.072;13.526;2023-02-01T04:29:38;7.30;85.90
33865;DHT22;20159;51.072;13.526;2023-02-01T04:32:04;6.70;85.60
33865;DHT22;20159;51.072;13.526;2023-02-01T04:34:30;6.70;85.30
33865;DHT22;20159;51.072;13.526;2023-02-01T04:36:56;6.70;85.10
33865;DHT22;20159;51.072;13.526;2023-02-01T04:39:22;6.60;85.10
33865;DHT22;20159;51.072;13.526;2023-02-01T04:41:47;6.60;85.20
33865;DHT22;20159;51.072;13.526;2023-02-01T04:44:14;6.60;85.00
33865;DHT22;20159;51.072;13.526;2023-02-01T04:46:41;6.60;85.00
33865;DHT22;20159;51.072;13.526;2023-02-01T04:49:09;6.70;85.30
33865;DHT22;20159;51.072;13.526;2023-02-01T04:51:34;6.60;85.00
33865;DHT22;20159;51.072;13.526;2023-02-01T04:54:00;6.60;84.90
33865;DHT22;20159;51.072;13.526;2023-02-01T04:56:26;6.60;84.70
33865;DHT22;20159;51.072;13.526;2023-02-01T04:58:51;6.60;84.70
33865;DHT22;20159;51.072;13.526;2023-02-01T05:01:17;6.60;84.70
33865;DHT22;20159;51.072;13.526;2023-02-01T05:03:42;6.60;84.50
33865;DHT22;20159;51.072;13.526;2023-02-01T05:06:08;6.60;84.60
33865;DHT22;20159;51.072;13.526;2023-02-01T05:08:33;6.60;84.50
33865;DHT22;20159;51.072;13.526;2023-02-01T05:10:59;6.60;84.40
33865;DHT22;20159;51.072;13.526;2023-02-01T05:13:27;6.60;84.30
33865;DHT22;20159;51.072;13.526;2023-02-01T05:16:12;6.60;84.30
33865;DHT22;20159;51.072;13.526;2023-02-01T05:18:37;6.60;84.20
33865;DHT22;20159;51.072;13.526;2023-02-01T05:21:03;6.70;84.10
33865;DHT22;20159;51.072;13.526;2023-02-01T05:23:28;6.60;84.20
33865;DHT22;20159;51.072;13.526;2023-02-01T05:25:59;6.60;84.10
33865;DHT22;20159;51.072;13.526;2023-02-01T05:28:25;6.60;84.10
33865;DHT22;20159;51.072;13.526;2023-02-01T05:30:50;6.80;84.20
33865;DHT22;20159;51.072;13.526;2023-02-01T05:33:16;6.70;83.90
33865;DHT22;20159;51.072;13.526;2023-02-01T05:35:41;6.70;84.00
33865;DHT22;20159;51.072;13.526;2023-02-01T05:38:07;6.70;83.80
33865;DHT22;20159;51.072;13.526;2023-02-01T05:40:32;6.70;83.80
33865;DHT22;20159;51.072;13.526;2023-02-01T05:42:58;6.60;83.70
33865;DHT22;20159;51.072;13.526;2023-02-01T05:45:23;6.70;84.20
33865;DHT22;20159;51.072;13.526;2023-02-01T05:47:49;6.80;84.00
33865;DHT22;20159;51.072;13.526;2023-02-01T05:50:16;6.70;83.80
33865;DHT22;20159;51.072;13.526;2023-02-01T05:52:42;6.70;83.70
33865;DHT22;20159;51.072;13.526;2023-02-01T05:55:07;6.70;83.70
33865;DHT22;20159;51.072;13.526;2023-02-01T05:57:33;6.70;84.00
33865;DHT22;20159;51.072;13.526;2023-02-01T05:59:58;6.70;83.90
33865;DHT22;20159;51.072;13.526;2023-02-01T06:02:24;6.80;83.80
33865;DHT22;20159;51.072;13.526;2023-02-01T06:04:50;6.80;83.60
33865;DHT22;20159;51.072;13.526;2023-02-01T06:07:16;6.80;83.80
33865;DHT22;20159;51.072;13.526;2023-02-01T06:09:42;6.80;83.40
33865;DHT22;20159;51.072;13.526;2023-02-01T06:12:07;6.80;83.30
33865;DHT22;20159;51.072;13.526;2023-02-01T06:14:33;6.80;83.30
33865;DHT22;20159;51.072;13.526;2023-02-01T06:16:59;6.80;83.60
33865;DHT22;20159;51.072;13.526;2023-02-01T06:19:24;6.80;83.40
33865;DHT22;20159;51.072;13.526;2023-02-01T06:21:49;6.80;83.50
33865;DHT22;20159;51.072;13.526;2023-02-01T06:24:15;6.80;83.60
33865;DHT22;20159;51.072;13.526;2023-02-01T06:26:41;6.80;83.60
33865;DHT22;20159;51.072;13.526;2023-02-01T06:29:09;6.80;83.40
33865;DHT22;20159;51.072;13.526;2023-02-01T06:31:34;6.80;83.50
33865;DHT22;20159;51.072;13.526;2023-02-01T06:34:00;6.80;83.50
33865;DHT22;20159;51.072;13.526;2023-02-01T06:36:25;6.80;83.60
33865;DHT22;20159;51.072;13.526;2023-02-01T06:38:51;6.90;83.20
33865;DHT22;20159;51.072;13.526;2023-02-01T06:41:17;6.90;84.00
33865;DHT22;20159;51.072;13.526;2023-02-01T06:43:42;6.90;83.50
33865;DHT22;20159;51.072;13.526;2023-02-01T06:46:11;6.80;83.40
33865;DHT22;20159;51.072;13.526;2023-02-01T06:48:37;6.90;83.50
33865;DHT22;20159;51.072;13.526;2023-02-01T06:51:02;6.90;83.60
33865;DHT22;20159;51.072;13.526;2023-02-01T06:53:28;6.90;83.60
33865;DHT22;20159;51.072;13.526;2023-02-01T06:55:59;8.10;84.40
33865;DHT22;20159;51.072;13.526;2023-02-01T06:58:28;6.90;83.70
33865;DHT22;20159;51.072;13.526;2023-02-01T07:00:54;6.90;83.80
33865;DHT22;20159;51.072;13.526;2023-02-01T07:03:19;6.90;84.00
33865;DHT22;20159;51.072;13.526;2023-02-01T07:05:45;6.90;84.30
33865;DHT22;20159;51.072;13.526;2023-02-01T07:08:10;6.90;84.30
33865;DHT22;20159;51.072;13.526;2023-02-01T07:10:37;6.90;84.70
33865;DHT22;20159;51.072;13.526;2023-02-01T07:13:02;6.90;85.00
33865;DHT22;20159;51.072;13.526;2023-02-01T07:15:28;6.90;85.40
33865;DHT22;20159;51.072;13.526;2023-02-01T07:17:56;6.90;85.60
33865;DHT22;20159;51.072;13.526;2023-02-01T07:20:22;6.80;85.90
33865;DHT22;20159;51.072;13.526;2023-02-01T07:22:48;6.80;86.20
33865;DHT22;20159;51.072;13.526;2023-02-01T07:25:13;6.80;86.50
33865;DHT22;20159;51.072;13.526;2023-02-01T07:27:39;6.70;86.70
33865;DHT22;20159;51.072;13.526;2023-02-01T07:30:05;6.70;87.10
33865;DHT22;20159;51.072;13.526;2023-02-01T07:32:31;6.60;87.40
33865;DHT22;20159;51.072;13.526;2023-02-01T07:34:58;6.60;87.70
33865;DHT22;20159;51.072;13.526;2023-02-01T07:37:24;6.50;87.90
33865;DHT22;20159;51.072;13.526;2023-02-01T07:39:52;6.50;88.10
33865;DHT22;20159;51.072;13.526;2023-02-01T07:42:18;6.50;88.00
33865;DHT22;20159;51.072;13.526;2023-02-01T07:44:44;6.40;88.10
33865;DHT22;20159;51.072;13.526;2023-02-01T07:47:09;6.40;88.30
33865;DHT22;20159;51.072;13.526;2023-02-01T07:49:35;6.40;88.50
33865;DHT22;20159;51.072;13.526;2023-02-01T07:52:00;6.40;88.50
33865;DHT22;20159;51.072;13.526;2023-02-01T07:54:26;6.30;88.40
33865;DHT22;20159;51.072;13.526;2023-02-01T07:56:51;6.40;88.50
33865;DHT22;20159;51.072;13.526;2023-02-01T07:59:17;6.50;88.60
33865;DHT22;20159;51.072;13.526;2023-02-01T08:01:42;6.30;88.90
33865;DHT22;20159;51.072;13.526;2023-02-01T08:04:10;6.30;89.10
33865;DHT22;20159;51.072;13.526;2023-02-01T08:06:37;6.30;89.10
33865;DHT22;20159;51.072;13.526;2023-02-01T08:09:03;6.30;89.00
33865;DHT22;20159;51.072;13.526;2023-02-01T08:11:29;6.40;89.00
33865;DHT22;20159;51.072;13.526;2023-02-01T08:13:55;6.50;89.20
33865;DHT22;20159;51.072;13.526;2023-02-01T08:16:21;6.40;89.20
33865;DHT22;20159;51.072;13.526;2023-02-01T08:18:47;6.50;89.40
33865;DHT22;20159;51.072;13.526;2023-02-01T08:21:15;6.40;89.10
33865;DHT22;20159;51.072;13.526;2023-02-01T08:23:42;6.40;89.00
33865;DHT22;20159;51.072;13.526;2023-02-01T08:26:10;6.40;88.90
33865;DHT22;20159;51.072;13.526;2023-02-01T08:28:37;6.50;89.10
33865;DHT22;20159;51.072;13.526;2023-02-01T08:31:12;6.40;88.60
33865;DHT22;20159;51.072;13.526;2023-02-01T08:33:40;6.40;88.60
33865;DHT22;20159;51.072;13.526;2023-02-01T08:36:07;6.50;88.60
33865;DHT22;20159;51.072;13.526;2023-02-01T08:38:38;5.90;88.10
33865;DHT22;20159;51.072;13.526;2023-02-01T08:41:06;6.50;88.40
33865;DHT22;20159;51.072;13.526;2023-02-01T08:43:31;6.60;88.10
33865;DHT22;20159;51.072;13.526;2023-02-01T08:45:57;6.60;87.90
33865;DHT22;20159;51.072;13.526;2023-02-01T08:48:22;6.60;87.70
33865;DHT22;20159;51.072;13.526;2023-02-01T08:50:48;6.60;87.20
33865;DHT22;20159;51.072;13.526;2023-02-01T08:53:13;6.70;87.20
33865;DHT22;20159;51.072;13.526;2023-02-01T08:55:39;6.70;87.10
33865;DHT22;20159;51.072;13.526;2023-02-01T08:58:05;6.80;87.10
33865;DHT22;20159;51.072;13.526;2023-02-01T09:00:30;6.80;87.00
33865;DHT22;20159;51.072;13.526;2023-02-01T09:02:56;6.90;86.70
33865;DHT22;20159;51.072;13.526;2023-02-01T09:05:21;6.90;86.80
33865;DHT22;20159;51.072;13.526;2023-02-01T09:07:48;7.00;86.40
33865;DHT22;20159;51.072;13.526;2023-02-01T09:10:13;7.00;86.10
33865;DHT22;20159;51.072;13.526;2023-02-01T09:12:39;7.10;86.10
33865;DHT22;20159;51.072;13.526;2023-02-01T09:15:05;7.10;86.10
33865;DHT22;20159;51.072;13.526;2023-02-01T09:17:32;7.10;86.00
33865;DHT22;20159;51.072;13.526;2023-02-01T09:19:58;7.10;86.20
33865;DHT22;20159;51.072;13.526;2023-02-01T09:22:23;7.10;86.60
33865;DHT22;20159;51.072;13.526;2023-02-01T09:24:49;7.20;86.50
33865;DHT22;20159;51.072;13.526;2023-02-01T09:27:14;7.20;86.70
33865;DHT22;20159;51.072;13.526;2023-02-01T09:29:40;7.10;86.90
33865;DHT22;20159;51.072;13.526;2023-02-01T09:32:05;7.10;87.10
33865;DHT22;20159;51.072;13.526;2023-02-01T09:34:32;7.20;87.40
33865;DHT22;20159;51.072;13.526;2023-02-01T09:36:57;7.10;87.50
33865;DHT22;20159;51.072;13.526;2023-02-01T09:39:23;7.10;87.80
33865;DHT22;20159;51.072;13.526;2023-02-01T09:41:59;7.00;88.00
33865;DHT22;20159;51.072;13.526;2023-02-01T09:44:38;7.00;88.40
33865;DHT22;20159;51.072;13.526;2023-02-01T09:47:13;6.90;88.40
33865;DHT22;20159;51.072;13.526;2023-02-01T09:49:48;6.80;88.70
33865;DHT22;20159;51.072;13.526;2023-02-01T09:52:22;6.70;88.90
33865;DHT22;20159;51.072;13.526;2023-02-01T09:54:54;6.80;89.20
33865;DHT22;20159;51.072;13.526;2023-02-01T09:57:28;6.60;89.50
33865;DHT22;20159;51.072;13.526;2023-02-01T10:00:05;7.60;90.10
33865;DHT22;20159;51.072;13.526;2023-02-01T10:02:35;6.40;90.10
33865;DHT22;20159;51.072;13.526;2023-02-01T10:05:02;6.40;90.30
33865;DHT22;20159;51.072;13.526;2023-02-01T10:07:40;6.30;90.40
33865;DHT22;20159;51.072;13.526;2023-02-01T10:10:15;6.20;90.70
33865;DHT22;20159;51.072;13.526;2023-02-01T10:15:59;6.10;91.20
33865;DHT22;20159;51.072;13.526;2023-02-01T10:26:20;6.10;91.70
33865;DHT22;20159;51.072;13.526;2023-02-01T10:28:56;6.10;91.80
33865;DHT22;20159;51.072;13.526;2023-02-01T10:31:23;6.10;92.00
33865;DHT22;20159;51.072;13.526;2023-02-01T10:34:01;6.10;92.40
33865;DHT22;20159;51.072;13.526;2023-02-01T10:38:58;6.10;92.10
33865;DHT22;20159;51.072;13.526;2023-02-01T10:41:31;6.20;92.10
33865;DHT22;20159;51.072;13.526;2023-02-01T10:43:58;6.20;92.10
33865;DHT22;20159;51.072;13.526;2023-02-01T10:46:26;6.20;92.10
33865;DHT22;20159;51.072;13.526;2023-02-01T10:48:54;6.20;92.10
33865;DHT22;20159;51.072;13.526;2023-02-01T10:51:24;6.30;92.10
33865;DHT22;20159;51.072;13.526;2023-02-01T10:54:01;6.30;92.10
33865;DHT22;20159;51.072;13.526;2023-02-01T10:56:28;6.40;92.30
33865;DHT22;20159;51.072;13.526;2023-02-01T10:59:03;6.50;92.10
33865;DHT22;20159;51.072;13.526;2023-02-01T11:01:40;6.50;92.00
33865;DHT22;20159;51.072;13.526;2023-02-01T11:04:11;6.60;91.90
33865;DHT22;20159;51.072;13.526;2023-02-01T11:06:51;6.60;91.70
33865;DHT22;20159;51.072;13.526;2023-02-01T11:09:22;6.70;91.60
33865;DHT22;20159;51.072;13.526;2023-02-01T11:14:15;6.80;91.40
33865;DHT22;20159;51.072;13.526;2023-02-01T11:16:47;6.80;91.40
33865;DHT22;20159;51.072;13.526;2023-02-01T11:19:15;6.90;91.30
33865;DHT22;20159;51.072;13.526;2023-02-01T11:21:42;7.00;91.20
33865;DHT22;20159;51.072;13.526;2023-02-01T11:24:20;7.00;91.20
33865;DHT22;20159;51.072;13.526;2023-02-01T11:26:47;7.20;91.00
33865;DHT22;20159;51.072;13.526;2023-02-01T11:29:17;7.20;90.80
33865;DHT22;20159;51.072;13.526;2023-02-01T11:31:45;7.30;90.80
33865;DHT22;20159;51.072;13.526;2023-02-01T11:34:21;7.40;90.50
33865;DHT22;20159;51.072;13.526;2023-02-01T11:36:49;7.40;90.20
33865;DHT22;20159;51.072;13.526;2023-02-01T11:41:43;7.50;90.10
33865;DHT22;20159;51.072;13.526;2023-02-01T11:44:26;7.50;90.10
33865;DHT22;20159;51.072;13.526;2023-02-01T11:46:53;7.50;90.00
33865;DHT22;20159;51.072;13.526;2023-02-01T11:49:25;7.60;90.00
33865;DHT22;20159;51.072;13.526;2023-02-01T11:52:12;7.60;89.50
33865;DHT22;20159;51.072;13.526;2023-02-01T12:05:47;7.70;89.70
33865;DHT22;20159;51.072;13.526;2023-02-01T12:08:36;7.80;89.80
33865;DHT22;20159;51.072;13.526;2023-02-01T12:13:51;7.80;89.10
33865;DHT22;20159;51.072;13.526;2023-02-01T12:16:50;7.90;88.50
33865;DHT22;20159;51.072;13.526;2023-02-01T12:19:47;7.90;88.50
33865;DHT22;20159;51.072;13.526;2023-02-01T12:25:39;7.90;87.50
33865;DHT22;20159;51.072;13.526;2023-02-01T12:34:01;7.90;87.10
33865;DHT22;20159;51.072;13.526;2023-02-01T12:37:23;7.90;86.80
33865;DHT22;20159;51.072;13.526;2023-02-01T12:42:15;7.90;87.20
33865;DHT22;20159;51.072;13.526;2023-02-01T12:44:51;8.00;87.20
33865;DHT22;20159;51.072;13.526;2023-02-01T12:50:18;8.00;87.30
33865;DHT22;20159;51.072;13.526;2023-02-01T12:52:49;8.00;87.00
33865;DHT22;20159;51.072;13.526;2023-02-01T12:58:21;8.10;87.60
33865;DHT22;20159;51.072;13.526;2023-02-01T13:01:11;8.10;86.80
33865;DHT22;20159;51.072;13.526;2023-02-01T13:03:54;8.20;86.60
33865;DHT22;20159;51.072;13.526;2023-02-01T13:06:35;8.20;86.50
33865;DHT22;20159;51.072;13.526;2023-02-01T13:09:29;8.20;85.80
33865;DHT22;20159;51.072;13.526;2023-02-01T13:12:09;8.30;86.60
33865;DHT22;20159;51.072;13.526;2023-02-01T13:14:39;8.30;86.20
33865;DHT22;20159;51.072;13.526;2023-02-01T13:19:56;8.40;86.10
33865;DHT22;20159;51.072;13.526;2023-02-01T13:22:28;8.40;86.00
33865;DHT22;20159;51.072;13.526;2023-02-01T13:27:35;8.50;84.40
33865;DHT22;20159;51.072;13.526;2023-02-01T13:30:27;8.50;84.90
33865;DHT22;20159;51.072;13.526;2023-02-01T13:33:33;8.50;83.90
33865;DHT22;20159;51.072;13.526;2023-02-01T13:41:27;8.60;84.30
33865;DHT22;20159;51.072;13.526;2023-02-01T13:44:08;8.60;84.30
33865;DHT22;20159;51.072;13.526;2023-02-01T13:46:40;8.60;84.20
33865;DHT22;20159;51.072;13.526;2023-02-01T13:49:25;8.60;83.50
33865;DHT22;20159;51.072;13.526;2023-02-01T13:51:54;8.70;83.50
33865;DHT22;20159;51.072;13.526;2023-02-01T13:54:39;8.70;83.40
33865;DHT22;20159;51.072;13.526;2023-02-01T13:57:13;8.70;81.60
33865;DHT22;20159;51.072;13.526;2023-02-01T14:05:10;8.70;82.60
33865;DHT22;20159;51.072;13.526;2023-02-01T14:07:36;8.70;82.20
33865;DHT22;20159;51.072;13.526;2023-02-01T14:13:57;8.70;81.40
33865;DHT22;20159;51.072;13.526;2023-02-01T14:23:46;8.60;80.60
33865;DHT22;20159;51.072;13.526;2023-02-01T14:28:53;8.60;79.80
33865;DHT22;20159;51.072;13.526;2023-02-01T14:31:37;8.60;80.40
33865;DHT22;20159;51.072;13.526;2023-02-01T14:34:17;8.60;80.40
33865;DHT22;20159;51.072;13.526;2023-02-01T14:37:00;8.60;80.20
33865;DHT22;20159;51.072;13.526;2023-02-01T14:39:30;8.60;80.10
33865;DHT22;20159;51.072;13.526;2023-02-01T14:42:00;8.50;79.90
33865;DHT22;20159;51.072;13.526;2023-02-01T14:44:32;8.50;79.90
33865;DHT22;20159;51.072;13.526;2023-02-01T14:47:10;8.50;80.00
33865;DHT22;20159;51.072;13.526;2023-02-01T14:49:57;8.50;79.70
33865;DHT22;20159;51.072;13.526;2023-02-01T14:52:34;8.40;79.90
33865;DHT22;20159;51.072;13.526;2023-02-01T14:55:04;8.40;80.00
33865;DHT22;20159;51.072;13.526;2023-02-01T14:57:32;8.40;80.30
33865;DHT22;20159;51.072;13.526;2023-02-01T15:00:25;8.30;80.40
33865;DHT22;20159;51.072;13.526;2023-02-01T15:02:52;8.30;80.00
33865;DHT22;20159;51.072;13.526;2023-02-01T15:05:30;8.30;80.20
33865;DHT22;20159;51.072;13.526;2023-02-01T15:08:02;8.20;79.50
33865;DHT22;20159;51.072;13.526;2023-02-01T15:10:31;8.30;80.00
33865;DHT22;20159;51.072;13.526;2023-02-01T15:12:57;8.20;80.30
33865;DHT22;20159;51.072;13.526;2023-02-01T15:15:24;8.20;80.20
33865;DHT22;20159;51.072;13.526;2023-02-01T15:17:55;8.20;80.30
33865;DHT22;20159;51.072;13.526;2023-02-01T15:20:28;8.10;80.30
33865;DHT22;20159;51.072;13.526;2023-02-01T15:23:03;8.10;80.80
33865;DHT22;20159;51.072;13.526;2023-02-01T15:25:31;8.10;80.90
33865;DHT22;20159;51.072;13.526;2023-02-01T15:27:57;8.00;80.80
33865;DHT22;20159;51.072;13.526;2023-02-01T15:30:26;8.00;80.70
33865;DHT22;20159;51.072;13.526;2023-02-01T15:33:13;7.90;80.30
33865;DHT22;20159;51.072;13.526;2023-02-01T15:35:43;7.90;80.50
33865;DHT22;20159;51.072;13.526;2023-02-01T15:46:10;7.80;80.30
33865;DHT22;20159;51.072;13.526;2023-02-01T15:48:40;9.60;81.80
33865;DHT22;20159;51.072;13.526;2023-02-01T15:51:16;7.70;80.10
33865;DHT22;20159;51.072;13.526;2023-02-01T15:53:49;7.70;79.70
33865;DHT22;20159;51.072;13.526;2023-02-01T15:56:15;7.70;79.90
33865;DHT22;20159;51.072;13.526;2023-02-01T15:58:43;7.80;80.10
33865;DHT22;20159;51.072;13.526;2023-02-01T16:01:12;7.70;81.20
33865;DHT22;20159;51.072;13.526;2023-02-01T16:03:46;7.70;81.40
33865;DHT22;20159;51.072;13.526;2023-02-01T16:08:55;7.60;82.00
33865;DHT22;20159;51.072;13.526;2023-02-01T16:11:29;7.60;81.70
33865;DHT22;20159;51.072;13.526;2023-02-01T16:13:59;7.50;81.80
33865;DHT22;20159;51.072;13.526;2023-02-01T16:16:26;7.40;82.30
33865;DHT22;20159;51.072;13.526;2023-02-01T16:18:52;7.40;82.70
33865;DHT22;20159;51.072;13.526;2023-02-01T16:21:17;7.40;82.80
33865;DHT22;20159;51.072;13.526;2023-02-01T16:23:43;7.30;83.10
33865;DHT22;20159;51.072;13.526;2023-02-01T16:26:08;7.20;83.50
33865;DHT22;20159;51.072;13.526;2023-02-01T16:28:35;7.20;83.90
33865;DHT22;20159;51.072;13.526;2023-02-01T16:31:01;7.20;84.20
33865;DHT22;20159;51.072;13.526;2023-02-01T16:33:27;7.10;84.40
33865;DHT22;20159;51.072;13.526;2023-02-01T16:35:55;7.10;84.90
33865;DHT22;20159;51.072;13.526;2023-02-01T16:38:22;7.20;85.10
33865;DHT22;20159;51.072;13.526;2023-02-01T16:40:49;7.00;85.20
33865;DHT22;20159;51.072;13.526;2023-02-01T16:43:20;7.00;85.50
33865;DHT22;20159;51.072;13.526;2023-02-01T16:45:48;7.00;86.10
33865;DHT22;20159;51.072;13.526;2023-02-01T16:48:31;7.00;86.30
33865;DHT22;20159;51.072;13.526;2023-02-01T16:51:03;6.90;86.80
33865;DHT22;20159;51.072;13.526;2023-02-01T16:53:30;6.90;86.80
33865;DHT22;20159;51.072;13.526;2023-02-01T16:55:56;8.60;88.10
33865;DHT22;20159;51.072;13.526;2023-02-01T16:58:23;6.80;87.60
33865;DHT22;20159;51.072;13.526;2023-02-01T17:00:49;6.80;88.10
33865;DHT22;20159;51.072;13.526;2023-02-01T17:03:16;6.70;86.70
33865;DHT22;20159;51.072;13.526;2023-02-01T17:05:49;6.60;85.20
33865;DHT22;20159;51.072;13.526;2023-02-01T17:08:22;6.40;84.70
33865;DHT22;20159;51.072;13.526;2023-02-01T17:10:50;6.20;84.70
33865;DHT22;20159;51.072;13.526;2023-02-01T17:13:18;6.00;85.20
33865;DHT22;20159;51.072;13.526;2023-02-01T17:16:05;5.80;85.90
33865;DHT22;20159;51.072;13.526;2023-02-01T17:18:34;5.50;87.30
33865;DHT22;20159;51.072;13.526;2023-02-01T17:21:02;5.40;87.50
33865;DHT22;20159;51.072;13.526;2023-02-01T17:23:29;5.20;88.30
33865;DHT22;20159;51.072;13.526;2023-02-01T17:25:55;4.10;88.70
33865;DHT22;20159;51.072;13.526;2023-02-01T17:28:21;5.00;89.80
33865;DHT22;20159;51.072;13.526;2023-02-01T17:30:47;4.80;90.10